Happy Valentine's Day! 

Flight Track Log - Related Links

Times and Time Zones

All times are in EDT time to prevent confusion due to time zone crossing. See the SWA3408 flight status page for this flight to view local times or setup timezone preferences in your user account.


Time Position Orientation Groundspeed Altitude Reporting Facility
EDT Latitude Longitude Course Direction KTS MPH feet Rate Location/Type
Fri 07:44:25 AM 41.8000 -87.7333 90° East 132 152 1,700  Level Chicago TRACON
Fri 07:45:25 AM 41.8000 -87.6667 90° East 206 237 2,600 1,400 Climbing Chicago TRACON
Fri 07:46:25 AM 41.8000 -87.5833 90° East 223 257 4,500 1,871 Climbing Chicago TRACON
Fri 07:46:58 AM 41.8092 -87.5522 68° East 213 245 5,500 3,574 Climbing Chicago Center
Fri 07:47:59 AM 41.7972 -87.4489 99° East 275 316 10,100 3,295 Climbing Chicago Center
Fri 07:49:00 AM 41.7875 -87.3392 97° East 296 341 12,200 2,634 Climbing Chicago Center
Fri 07:50:02 AM 41.7756 -87.2136 97° East 330 380 15,500 3,171 Climbing Chicago Center
Fri 07:51:03 AM 41.7633 -87.0781 97° East 360 414 18,700 3,463 Climbing Chicago Center
Fri 07:52:05 AM 41.7633 -86.9064 90° East 383 441 22,600 3,268 Climbing Chicago Center
Fri 07:53:06 AM 41.7639 -86.7542 90° East 404 465 25,400 2,683 Climbing Chicago Center
Fri 07:54:08 AM 41.7650 -86.5886 89° East 419 482 28,100 2,390 Climbing Chicago Center
Fri 07:55:09 AM 41.7672 -86.4275 89° East 431 496 30,300 1,902 Climbing Chicago Center
Fri 07:56:11 AM 41.7639 -86.2606 91° East 443 510 32,000 1,756 Climbing Chicago Center
Fri 07:57:12 AM 41.7550 -86.0917 94° East 453 521 33,900 2,000 Climbing Chicago Center
Fri 07:58:14 AM 41.7439 -85.9217 95° East 457 526 36,100 2,098 Climbing Chicago Center
Fri 07:59:15 AM 41.7336 -85.7550 95° East 452 520 38,200 1,770 Climbing Chicago Center
Fri 08:00:16 AM 41.7236 -85.5894 95° East 446 513 39,700 1,220 Climbing Chicago Center
Fri 08:01:18 AM 41.7094 -85.4061 96° East 443 510 40,700 634 Climbing Chicago Center
Fri 08:02:19 AM 41.6992 -85.2453 95° East 451 519 41,000 146 Climbing Chicago Center
Fri 08:03:21 AM 41.6886 -85.0769 95° East 453 521 41,000  Level Chicago Center
Fri 08:03:48 AM 41.6831 -84.9989 95° East 454 522 41,000  Level Cleveland Center
Fri 08:04:48 AM 41.6706 -84.8339 96° East 449 517 41,000  Level Cleveland Center
Fri 08:05:48 AM 41.6622 -84.6639 94° East 449 517 41,000  Level Cleveland Center
Fri 08:06:48 AM 41.6553 -84.4994 93° East 449 517 41,000  Level Cleveland Center
Fri 08:07:48 AM 41.6486 -84.3294 93° East 449 517 41,000  Level Cleveland Center
Fri 08:08:48 AM 41.6372 -84.1619 95° East 449 517 41,000  Level Cleveland Center
Fri 08:09:48 AM 41.6297 -83.9947 93° East 449 517 41,000  Level Cleveland Center
Fri 08:10:48 AM 41.6181 -83.8275 95° East 449 517 41,000  Level Cleveland Center
Fri 08:11:48 AM 41.6122 -83.6606 93° East 449 517 41,000  Level Cleveland Center
Fri 08:12:48 AM 41.5997 -83.4933 96° East 449 517 41,000  Level Cleveland Center
Fri 08:13:48 AM 41.5494 -83.3439 114° Southeast 434 499 41,000  Level Cleveland Center
Fri 08:14:48 AM 41.4794 -83.2133 126° Southeast 425 489 41,000  Level Cleveland Center
Fri 08:15:48 AM 41.3992 -83.0689 127° Southeast 443 510 41,000  Level Cleveland Center
Fri 08:16:48 AM 41.3272 -82.9333 125° Southeast 443 510 41,000  Level Cleveland Center
Fri 08:17:48 AM 41.2608 -82.8122 126° Southeast 448 516 41,000  Level Cleveland Center
Fri 08:18:48 AM 41.1861 -82.6800 127° Southeast 448 516 41,000  Level Cleveland Center
Fri 08:19:48 AM 41.1114 -82.5453 126° Southeast 448 516 41,000  Level Cleveland Center
Fri 08:20:48 AM 41.0364 -82.4136 127° Southeast 443 510 41,000  Level Cleveland Center
Fri 08:21:48 AM 40.9614 -82.2797 127° Southeast 443 510 41,000  Level Cleveland Center
Fri 08:22:48 AM 40.8881 -82.1458 126° Southeast 448 516 41,000  Level Cleveland Center
Fri 08:23:48 AM 40.8128 -82.0153 127° Southeast 448 516 41,000  Level Cleveland Center
Fri 08:24:48 AM 40.7372 -81.8792 126° Southeast 448 516 41,000  Level Cleveland Center
Fri 08:25:48 AM 40.6617 -81.7436 126° Southeast 448 516 41,000 -50 Level Cleveland Center
Fri 08:26:48 AM 40.5878 -81.6139 127° Southeast 448 516 40,900 -500 Descending Cleveland Center
Fri 08:27:48 AM 40.5117 -81.4817 127° Southeast 448 516 40,000 -450 Descending Cleveland Center
Fri 08:28:48 AM 40.4317 -81.3358 126° Southeast 448 516 40,000  Level Cleveland Center
Fri 08:29:48 AM 40.3572 -81.2069 127° Southeast 448 516 40,000  Level Cleveland Center
Fri 08:30:48 AM 40.2828 -81.0783 127° Southeast 443 510 40,000  Level Cleveland Center
Fri 08:31:48 AM 40.2083 -80.9528 128° Southeast 443 510 40,000  Level Cleveland Center
Fri 08:32:48 AM 40.1397 -80.8356 127° Southeast 443 510 40,000  Level Cleveland Center
Fri 08:33:48 AM 40.0669 -80.7133 128° Southeast 443 510 40,000  Level Cleveland Center
Fri 08:34:48 AM 39.9922 -80.5858 127° Southeast 443 510 40,000  Level Cleveland Center
Fri 08:35:48 AM 39.9192 -80.4558 126° Southeast 443 510 40,000  Level Cleveland Center
Fri 08:37:24 AM 39.8200 -80.2383 121° Southeast 451 519 40,000 -731 Level Washington Center
Fri 08:38:24 AM 39.7586 -80.1019 120° Southeast 451 519 38,100 -2,231 Descending Washington Center
Fri 08:39:25 AM 39.6989 -79.9689 120° Southeast 441 507 35,500 -2,898 Descending Washington Center
Fri 08:40:22 AM 39.6369 -79.8331 121° Southeast 441 507 32,400 -2,874 Descending Washington Center
Fri 08:41:24 AM 39.5769 -79.6975 120° Southeast 441 507 29,800 -2,459 Descending Washington Center
Fri 08:42:24 AM 39.5169 -79.5650 120° Southeast 436 502 27,400 -1,388 Descending Washington Center
Fri 08:43:25 AM 39.4800 -79.4203 108° East 423 487 27,000 -843 Descending Washington Center
Fri 08:44:25 AM 39.4475 -79.2575 104° East 423 487 25,700 -1,780 Descending Washington Center
Fri 08:45:23 AM 39.4247 -79.1139 102° East 417 480 23,500 -2,118 Descending Washington Center
Fri 08:46:24 AM 39.3992 -78.9811 104° East 403 464 21,500 -1,820 Descending Washington Center
Fri 08:47:25 AM 39.3778 -78.8539 102° East 383 441 19,800 -1,765 Descending Washington Center
Fri 08:48:23 AM 39.3539 -78.7292 104° East 363 418 18,000 -1,765 Descending Washington Center
Fri 08:49:24 AM 39.3342 -78.6131 102° East 351 404 16,300 -1,820 Descending Washington Center
Fri 08:50:25 AM 39.3119 -78.4967 104° East 334 384 14,300 -1,835 Descending Washington Center
Fri 08:51:25 AM 39.2917 -78.3861 103° East 323 372 12,600 -1,550 Descending Washington Center
Fri 08:52:25 AM 39.2481 -78.2906 120° Southeast 313 360 11,200 -1,169 Descending Washington Center
Fri 08:53:23 AM 39.2019 -78.2083 126° Southeast 295 339 10,300 -1,261 Descending Washington Center
Fri 08:54:24 AM 39.1914 -78.1144 98° East 260 299 8,700 -1,488 Descending Washington Center
Fri 08:55:24 AM 39.1933 -78.0206 88° East 260 299 7,300 -1,475 Descending Washington Center
Fri 08:56:22 AM 39.1950 -77.9297 89° East 252 290 5,800 -1,160 Descending Washington Center
Fri 08:57:23 AM 39.2008 -77.8442 85° East 252 290 5,000 -885 Descending Washington Center
Fri 08:58:24 AM 39.1836 -77.7633 105° East 241 277 4,000 -541 Descending Washington Center
Fri 08:59:25 AM 39.1639 -77.6903 109° East 224 258 3,900 -414 Descending Washington Center
Fri 09:00:49 AM 39.1333 -77.6000 114° Southeast 181 208 3,000 -609 Descending Potomac TRACON
Fri 09:01:43 AM 39.1333 -77.5500 90° East 176 203 2,500 -522 Descending Potomac TRACON
Fri 09:02:44 AM 39.1000 -77.4833 123° Southeast 186 214 2,000 -248 Descending Potomac TRACON
Fri 09:03:44 AM 39.0667 -77.4500 142° Southeast 182 209 2,000 -450 Level Potomac TRACON
Fri 09:04:44 AM 39.0167 -77.4667 195° South 160 184 1,100 -900 Descending Potomac TRACON
Fri 09:06:00 AM 38.9474 -77.4599 165° South  Level Estimated
Fri 09:13:00 AM 38.9474 -77.4599 165° South  Level Estimated
Fri 09:14:00 AM 38.9474 -77.4599 165° South  Level Estimated
Fri 09:15:00 AM 38.9474 -77.4599 165° South  Level Estimated
Fri 09:16:00 AM 38.9474 -77.4599 165° South  Level Estimated

Login

Don't have an account? Register now (free) for customized features, flight alerts, and more!